sensor_id;sensor_type;location;lat;lon;timestamp;temperature;humidity
74742;DHT22;63265;48.288;16.314;2022-09-13T05:54:01;18.60;72.50
74742;DHT22;63265;48.288;16.314;2022-09-13T05:56:28;18.50;72.90
74742;DHT22;63265;48.288;16.314;2022-09-13T05:58:54;18.40;72.80
74742;DHT22;63265;48.288;16.314;2022-09-13T06:01:25;18.30;72.10
74742;DHT22;63265;48.288;16.314;2022-09-13T06:03:56;18.20;71.60
74742;DHT22;63265;48.288;16.314;2022-09-13T06:06:23;18.20;71.20
74742;DHT22;63265;48.288;16.314;2022-09-13T06:08:56;18.10;71.10
74742;DHT22;63265;48.288;16.314;2022-09-13T06:11:23;18.10;71.30
74742;DHT22;63265;48.288;16.314;2022-09-13T06:13:49;18.10;72.60
74742;DHT22;63265;48.288;16.314;2022-09-13T06:16:15;18.20;73.00
74742;DHT22;63265;48.288;16.314;2022-09-13T06:18:42;18.30;72.90
74742;DHT22;63265;48.288;16.314;2022-09-13T06:21:11;18.40;72.60
74742;DHT22;63265;48.288;16.314;2022-09-13T06:23:52;18.40;72.60
74742;DHT22;63265;48.288;16.314;2022-09-13T06:26:23;18.50;72.50
74742;DHT22;63265;48.288;16.314;2022-09-13T06:28:51;18.50;73.20
74742;DHT22;63265;48.288;16.314;2022-09-13T06:31:20;18.50;72.70
74742;DHT22;63265;48.288;16.314;2022-09-13T06:33:46;18.50;71.90
74742;DHT22;63265;48.288;16.314;2022-09-13T06:36:17;18.50;71.90
74742;DHT22;63265;48.288;16.314;2022-09-13T06:38:43;18.50;71.90
74742;DHT22;63265;48.288;16.314;2022-09-13T06:41:15;18.50;71.40
74742;DHT22;63265;48.288;16.314;2022-09-13T06:43:43;18.50;71.20
74742;DHT22;63265;48.288;16.314;2022-09-13T06:46:11;18.60;71.10
74742;DHT22;63265;48.288;16.314;2022-09-13T06:48:39;18.70;71.10
74742;DHT22;63265;48.288;16.314;2022-09-13T06:51:09;18.70;70.90
74742;DHT22;63265;48.288;16.314;2022-09-13T06:53:35;18.70;70.70
74742;DHT22;63265;48.288;16.314;2022-09-13T06:56:09;18.70;70.70
74742;DHT22;63265;48.288;16.314;2022-09-13T06:58:36;18.80;70.50
74742;DHT22;63265;48.288;16.314;2022-09-13T07:03:41;18.80;70.30
74742;DHT22;63265;48.288;16.314;2022-09-13T07:06:29;18.80;70.20
74742;DHT22;63265;48.288;16.314;2022-09-13T07:08:56;18.80;70.20
74742;DHT22;63265;48.288;16.314;2022-09-13T07:11:24;18.90;70.20
74742;DHT22;63265;48.288;16.314;2022-09-13T07:13:54;18.90;70.20
74742;DHT22;63265;48.288;16.314;2022-09-13T07:16:26;18.90;70.20
74742;DHT22;63265;48.288;16.314;2022-09-13T07:18:53;18.90;70.20
74742;DHT22;63265;48.288;16.314;2022-09-13T07:21:19;18.90;70.10
74742;DHT22;63265;48.288;16.314;2022-09-13T07:23:46;18.90;70.10
74742;DHT22;63265;48.288;16.314;2022-09-13T07:26:12;19.00;70.10
74742;DHT22;63265;48.288;16.314;2022-09-13T07:28:40;19.00;70.00
74742;DHT22;63265;48.288;16.314;2022-09-13T07:31:11;19.00;69.90
74742;DHT22;63265;48.288;16.314;2022-09-13T07:33:38;19.00;69.80
74742;DHT22;63265;48.288;16.314;2022-09-13T07:36:05;19.00;69.80
74742;DHT22;63265;48.288;16.314;2022-09-13T07:38:36;19.00;69.60
74742;DHT22;63265;48.288;16.314;2022-09-13T07:41:02;19.10;69.70
74742;DHT22;63265;48.288;16.314;2022-09-13T07:43:31;19.10;69.70
74742;DHT22;63265;48.288;16.314;2022-09-13T07:46:02;19.10;69.70
74742;DHT22;63265;48.288;16.314;2022-09-13T07:48:30;19.10;69.60
74742;DHT22;63265;48.288;16.314;2022-09-13T07:53:25;19.10;69.60
74742;DHT22;63265;48.288;16.314;2022-09-13T07:55:51;19.10;69.50
74742;DHT22;63265;48.288;16.314;2022-09-13T07:58:17;19.10;69.50
74742;DHT22;63265;48.288;16.314;2022-09-13T08:00:43;19.10;69.50
74742;DHT22;63265;48.288;16.314;2022-09-13T08:03:10;19.10;69.50
74742;DHT22;63265;48.288;16.314;2022-09-13T08:05:40;19.20;69.50
74742;DHT22;63265;48.288;16.314;2022-09-13T08:08:05;19.20;69.50
74742;DHT22;63265;48.288;16.314;2022-09-13T08:10:32;19.10;69.40
74742;DHT22;63265;48.288;16.314;2022-09-13T08:12:58;19.20;69.50
74742;DHT22;63265;48.288;16.314;2022-09-13T08:15:24;19.20;69.40
74742;DHT22;63265;48.288;16.314;2022-09-13T08:17:50;19.20;69.40
74742;DHT22;63265;48.288;16.314;2022-09-13T08:20:17;19.20;69.30
74742;DHT22;63265;48.288;16.314;2022-09-13T08:22:42;19.20;69.40
74742;DHT22;63265;48.288;16.314;2022-09-13T08:25:08;19.20;69.40
74742;DHT22;63265;48.288;16.314;2022-09-13T08:27:33;19.20;69.30
74742;DHT22;63265;48.288;16.314;2022-09-13T08:29:59;19.20;69.40
74742;DHT22;63265;48.288;16.314;2022-09-13T08:32:24;19.20;69.40
74742;DHT22;63265;48.288;16.314;2022-09-13T08:34:50;19.20;69.50
74742;DHT22;63265;48.288;16.314;2022-09-13T08:37:15;19.20;69.50
74742;DHT22;63265;48.288;16.314;2022-09-13T08:39:41;19.20;69.50
74742;DHT22;63265;48.288;16.314;2022-09-13T08:45:11;19.10;69.40
74742;DHT22;63265;48.288;16.314;2022-09-13T08:47:42;19.20;69.60
74742;DHT22;63265;48.288;16.314;2022-09-13T08:53:05;19.10;69.60
74742;DHT22;63265;48.288;16.314;2022-09-13T08:58:42;19.10;69.70
74742;DHT22;63265;48.288;16.314;2022-09-13T09:01:29;19.10;69.70
74742;DHT22;63265;48.288;16.314;2022-09-13T09:07:09;19.10;69.80
74742;DHT22;63265;48.288;16.314;2022-09-13T09:15:02;19.10;69.80
74742;DHT22;63265;48.288;16.314;2022-09-13T09:17:35;19.10;69.90
74742;DHT22;63265;48.288;16.314;2022-09-13T09:20:23;19.10;70.70
74742;DHT22;63265;48.288;16.314;2022-09-13T09:22:50;19.10;69.90
74742;DHT22;63265;48.288;16.314;2022-09-13T09:25:18;19.10;69.90
74742;DHT22;63265;48.288;16.314;2022-09-13T09:27:44;19.10;69.90
74742;DHT22;63265;48.288;16.314;2022-09-13T09:30:12;19.10;69.90
74742;DHT22;63265;48.288;16.314;2022-09-13T09:32:51;19.10;69.90
74742;DHT22;63265;48.288;16.314;2022-09-13T09:40:45;19.10;69.90
74742;DHT22;63265;48.288;16.314;2022-09-13T09:43:16;19.10;69.80
74742;DHT22;63265;48.288;16.314;2022-09-13T09:45:45;19.10;70.80
74742;DHT22;63265;48.288;16.314;2022-09-13T09:48:15;19.10;69.90
74742;DHT22;63265;48.288;16.314;2022-09-13T09:50:51;19.10;69.80
74742;DHT22;63265;48.288;16.314;2022-09-13T09:53:32;19.10;69.90
74742;DHT22;63265;48.288;16.314;2022-09-13T09:56:28;19.10;69.90
74742;DHT22;63265;48.288;16.314;2022-09-13T09:58:54;19.10;69.80
74742;DHT22;63265;48.288;16.314;2022-09-13T10:01:33;19.10;70.70
74742;DHT22;63265;48.288;16.314;2022-09-13T10:04:06;19.10;69.70
74742;DHT22;63265;48.288;16.314;2022-09-13T10:06:34;19.10;69.80
74742;DHT22;63265;48.288;16.314;2022-09-13T10:09:04;19.10;69.70
74742;DHT22;63265;48.288;16.314;2022-09-13T10:11:52;19.10;69.80
74742;DHT22;63265;48.288;16.314;2022-09-13T10:14:38;19.10;69.80
74742;DHT22;63265;48.288;16.314;2022-09-13T10:19:57;19.20;69.80
74742;DHT22;63265;48.288;16.314;2022-09-13T10:22:31;19.10;69.70
74742;DHT22;63265;48.288;16.314;2022-09-13T10:25:14;19.10;69.70
74742;DHT22;63265;48.288;16.314;2022-09-13T10:27:47;19.10;69.70
74742;DHT22;63265;48.288;16.314;2022-09-13T10:30:52;19.10;69.70
74742;DHT22;63265;48.288;16.314;2022-09-13T10:33:32;19.20;69.80
74742;DHT22;63265;48.288;16.314;2022-09-13T10:36:02;19.10;69.70
74742;DHT22;63265;48.288;16.314;2022-09-13T10:38:33;19.10;69.80
74742;DHT22;63265;48.288;16.314;2022-09-13T10:41:01;19.10;69.80
74742;DHT22;63265;48.288;16.314;2022-09-13T10:43:28;19.10;70.70
74742;DHT22;63265;48.288;16.314;2022-09-13T10:45:55;19.10;69.90
74742;DHT22;63265;48.288;16.314;2022-09-13T10:48:21;19.10;69.80
74742;DHT22;63265;48.288;16.314;2022-09-13T10:54:09;19.10;69.90
74742;DHT22;63265;48.288;16.314;2022-09-13T10:56:40;19.10;69.90
74742;DHT22;63265;48.288;16.314;2022-09-13T10:59:15;19.10;69.90
74742;DHT22;63265;48.288;16.314;2022-09-13T11:21:12;19.10;70.00
74742;DHT22;63265;48.288;16.314;2022-09-13T11:35:15;19.10;70.00
74742;DHT22;63265;48.288;16.314;2022-09-13T11:37:54;19.10;70.10
74742;DHT22;63265;48.288;16.314;2022-09-13T11:40:33;19.10;70.10
74742;DHT22;63265;48.288;16.314;2022-09-13T11:48:49;19.10;70.10
74742;DHT22;63265;48.288;16.314;2022-09-13T11:56:56;19.20;69.80
74742;DHT22;63265;48.288;16.314;2022-09-13T11:59:58;19.20;69.80
74742;DHT22;63265;48.288;16.314;2022-09-13T12:02:41;19.20;69.80
74742;DHT22;63265;48.288;16.314;2022-09-13T12:05:20;19.20;69.60
74742;DHT22;63265;48.288;16.314;2022-09-13T12:11:03;19.20;69.40
74742;DHT22;63265;48.288;16.314;2022-09-13T12:13:57;19.20;69.30
74742;DHT22;63265;48.288;16.314;2022-09-13T12:16:33;19.20;69.20
74742;DHT22;63265;48.288;16.314;2022-09-13T12:19:06;19.20;69.30
74742;DHT22;63265;48.288;16.314;2022-09-13T12:21:38;19.20;69.40
74742;DHT22;63265;48.288;16.314;2022-09-13T12:29:51;19.20;69.30
74742;DHT22;63265;48.288;16.314;2022-09-13T12:32:18;19.20;69.40
74742;DHT22;63265;48.288;16.314;2022-09-13T12:35:08;19.20;69.50
74742;DHT22;63265;48.288;16.314;2022-09-13T12:40:50;19.20;69.50
74742;DHT22;63265;48.288;16.314;2022-09-13T12:43:34;19.20;70.40
74742;DHT22;63265;48.288;16.314;2022-09-13T12:57:04;19.20;69.50
74742;DHT22;63265;48.288;16.314;2022-09-13T13:02:49;19.20;69.50
74742;DHT22;63265;48.288;16.314;2022-09-13T13:05:19;19.20;69.50
74742;DHT22;63265;48.288;16.314;2022-09-13T13:07:51;19.20;69.50
74742;DHT22;63265;48.288;16.314;2022-09-13T13:10:27;19.20;69.40
74742;DHT22;63265;48.288;16.314;2022-09-13T13:12:55;19.20;69.40
74742;DHT22;63265;48.288;16.314;2022-09-13T13:17:51;19.20;69.30
74742;DHT22;63265;48.288;16.314;2022-09-13T13:20:40;19.20;69.20
74742;DHT22;63265;48.288;16.314;2022-09-13T13:23:35;19.30;69.20
74742;DHT22;63265;48.288;16.314;2022-09-13T13:36:59;19.40;68.90
74742;DHT22;63265;48.288;16.314;2022-09-13T13:41:57;19.40;68.90
74742;DHT22;63265;48.288;16.314;2022-09-13T13:57:43;19.30;69.00
74742;DHT22;63265;48.288;16.314;2022-09-13T14:05:36;19.30;69.20
74742;DHT22;63265;48.288;16.314;2022-09-13T14:20:08;19.30;69.20
74742;DHT22;63265;48.288;16.314;2022-09-13T14:22:35;19.30;69.20
74742;DHT22;63265;48.288;16.314;2022-09-13T14:27:46;19.30;69.20
74742;DHT22;63265;48.288;16.314;2022-09-13T14:32:49;19.30;69.40
74742;DHT22;63265;48.288;16.314;2022-09-13T14:35:34;19.30;69.40
74742;DHT22;63265;48.288;16.314;2022-09-13T14:38:19;19.30;69.40
74742;DHT22;63265;48.288;16.314;2022-09-13T14:40:53;19.30;69.40
74742;DHT22;63265;48.288;16.314;2022-09-13T14:43:24;19.30;69.50
74742;DHT22;63265;48.288;16.314;2022-09-13T14:51:28;19.30;69.10
74742;DHT22;63265;48.288;16.314;2022-09-13T14:54:18;19.30;69.30
74742;DHT22;63265;48.288;16.314;2022-09-13T14:56:56;19.30;69.20
74742;DHT22;63265;48.288;16.314;2022-09-13T15:01:57;19.30;69.10
74742;DHT22;63265;48.288;16.314;2022-09-13T15:04:23;19.30;69.00
74742;DHT22;63265;48.288;16.314;2022-09-13T15:07:20;19.30;69.10
74742;DHT22;63265;48.288;16.314;2022-09-13T15:09:46;19.30;69.20
74742;DHT22;63265;48.288;16.314;2022-09-13T15:12:24;19.30;69.40
74742;DHT22;63265;48.288;16.314;2022-09-13T15:15:53;19.30;69.40
74742;DHT22;63265;48.288;16.314;2022-09-13T15:21:15;19.20;69.50
74742;DHT22;63265;48.288;16.314;2022-09-13T15:23:47;19.20;69.60
74742;DHT22;63265;48.288;16.314;2022-09-13T15:26:21;19.20;69.60
74742;DHT22;63265;48.288;16.314;2022-09-13T15:28:51;19.20;69.70
74742;DHT22;63265;48.288;16.314;2022-09-13T15:31:27;19.20;69.90
74742;DHT22;63265;48.288;16.314;2022-09-13T15:36:39;19.20;70.10
74742;DHT22;63265;48.288;16.314;2022-09-13T15:41:38;19.10;70.20
74742;DHT22;63265;48.288;16.314;2022-09-13T15:44:06;19.10;70.30
74742;DHT22;63265;48.288;16.314;2022-09-13T15:46:42;19.10;71.20
74742;DHT22;63265;48.288;16.314;2022-09-13T15:49:15;19.10;70.40
74742;DHT22;63265;48.288;16.314;2022-09-13T15:51:42;19.10;70.50
74742;DHT22;63265;48.288;16.314;2022-09-13T15:54:15;19.10;70.40
74742;DHT22;63265;48.288;16.314;2022-09-13T15:56:43;19.10;70.40
74742;DHT22;63265;48.288;16.314;2022-09-13T15:59:18;19.10;70.40
74742;DHT22;63265;48.288;16.314;2022-09-13T16:01:44;19.10;70.50
74742;DHT22;63265;48.288;16.314;2022-09-13T16:04:11;19.10;70.50
74742;DHT22;63265;48.288;16.314;2022-09-13T16:06:38;19.10;70.70
74742;DHT22;63265;48.288;16.314;2022-09-13T16:11:40;19.10;70.90
74742;DHT22;63265;48.288;16.314;2022-09-13T16:14:05;19.10;71.00
74742;DHT22;63265;48.288;16.314;2022-09-13T16:16:31;19.10;71.00
74742;DHT22;63265;48.288;16.314;2022-09-13T16:18:56;19.10;71.00
74742;DHT22;63265;48.288;16.314;2022-09-13T16:21:22;19.10;71.00
74742;DHT22;63265;48.288;16.314;2022-09-13T16:23:48;19.00;70.90
74742;DHT22;63265;48.288;16.314;2022-09-13T16:26:13;19.00;71.10
74742;DHT22;63265;48.288;16.314;2022-09-13T16:28:39;19.10;71.20
74742;DHT22;63265;48.288;16.314;2022-09-13T16:31:04;19.00;71.20
74742;DHT22;63265;48.288;16.314;2022-09-13T16:33:30;19.00;72.00
74742;DHT22;63265;48.288;16.314;2022-09-13T16:35:56;19.00;71.20
74742;DHT22;63265;48.288;16.314;2022-09-13T16:38:22;19.00;72.20
74742;DHT22;63265;48.288;16.314;2022-09-13T16:40:47;19.00;71.20
74742;DHT22;63265;48.288;16.314;2022-09-13T16:43:13;19.00;72.50
74742;DHT22;63265;48.288;16.314;2022-09-13T16:45:39;19.00;71.70
74742;DHT22;63265;48.288;16.314;2022-09-13T16:48:06;19.00;72.20
74742;DHT22;63265;48.288;16.314;2022-09-13T16:50:32;19.00;71.70
74742;DHT22;63265;48.288;16.314;2022-09-13T16:52:58;19.00;71.90
74742;DHT22;63265;48.288;16.314;2022-09-13T16:55:23;19.10;72.00
74742;DHT22;63265;48.288;16.314;2022-09-13T16:57:51;19.00;72.00
74742;DHT22;63265;48.288;16.314;2022-09-13T17:00:17;19.00;72.00
74742;DHT22;63265;48.288;16.314;2022-09-13T17:02:45;19.00;72.10
74742;DHT22;63265;48.288;16.314;2022-09-13T17:05:11;19.00;72.10
74742;DHT22;63265;48.288;16.314;2022-09-13T17:07:37;19.00;72.10
74742;DHT22;63265;48.288;16.314;2022-09-13T17:10:05;19.00;72.20
74742;DHT22;63265;48.288;16.314;2022-09-13T17:12:31;19.00;72.20
74742;DHT22;63265;48.288;16.314;2022-09-13T17:14:57;19.00;72.20
74742;DHT22;63265;48.288;16.314;2022-09-13T17:17:24;19.00;72.20
74742;DHT22;63265;48.288;16.314;2022-09-13T17:19:50;19.00;72.20
74742;DHT22;63265;48.288;16.314;2022-09-13T17:22:17;19.00;72.10
74742;DHT22;63265;48.288;16.314;2022-09-13T17:24:42;19.00;72.50
74742;DHT22;63265;48.288;16.314;2022-09-13T17:27:09;19.00;72.20
74742;DHT22;63265;48.288;16.314;2022-09-13T17:29:35;19.00;72.20
74742;DHT22;63265;48.288;16.314;2022-09-13T17:32:03;19.00;72.20
74742;DHT22;63265;48.288;16.314;2022-09-13T17:34:30;19.00;72.30
74742;DHT22;63265;48.288;16.314;2022-09-13T17:36:56;19.00;72.30
74742;DHT22;63265;48.288;16.314;2022-09-13T17:39:22;19.00;72.30
74742;DHT22;63265;48.288;16.314;2022-09-13T17:41:48;19.00;72.30
74742;DHT22;63265;48.288;16.314;2022-09-13T17:44:14;19.00;72.30
74742;DHT22;63265;48.288;16.314;2022-09-13T17:46:40;19.00;72.30
74742;DHT22;63265;48.288;16.314;2022-09-13T17:49:06;19.00;72.30
74742;DHT22;63265;48.288;16.314;2022-09-13T17:51:32;19.00;72.30
74742;DHT22;63265;48.288;16.314;2022-09-13T17:54:00;19.00;72.40
74742;DHT22;63265;48.288;16.314;2022-09-13T17:56:38;19.00;72.40
74742;DHT22;63265;48.288;16.314;2022-09-13T17:59:14;19.00;72.40
74742;DHT22;63265;48.288;16.314;2022-09-13T18:01:43;19.00;72.40
74742;DHT22;63265;48.288;16.314;2022-09-13T18:04:10;19.00;72.50
74742;DHT22;63265;48.288;16.314;2022-09-13T18:06:36;19.00;72.50
74742;DHT22;63265;48.288;16.314;2022-09-13T18:09:05;19.00;72.50
74742;DHT22;63265;48.288;16.314;2022-09-13T18:11:31;19.00;72.50
74742;DHT22;63265;48.288;16.314;2022-09-13T18:13:56;19.00;72.50
74742;DHT22;63265;48.288;16.314;2022-09-13T18:16:24;19.00;72.60
74742;DHT22;63265;48.288;16.314;2022-09-13T18:18:51;19.00;72.50
74742;DHT22;63265;48.288;16.314;2022-09-13T18:21:22;19.00;72.50
74742;DHT22;63265;48.288;16.314;2022-09-13T18:23:49;19.00;72.50
74742;DHT22;63265;48.288;16.314;2022-09-13T18:26:17;19.00;72.30
74742;DHT22;63265;48.288;16.314;2022-09-13T18:28:43;19.00;72.30
74742;DHT22;63265;48.288;16.314;2022-09-13T18:31:13;19.00;72.20
74742;DHT22;63265;48.288;16.314;2022-09-13T18:33:39;19.00;72.10
74742;DHT22;63265;48.288;16.314;2022-09-13T18:38:48;19.00;73.10
74742;DHT22;63265;48.288;16.314;2022-09-13T18:41:16;19.00;72.30
74742;DHT22;63265;48.288;16.314;2022-09-13T18:43:44;19.00;72.30
74742;DHT22;63265;48.288;16.314;2022-09-13T18:46:13;19.00;72.40
74742;DHT22;63265;48.288;16.314;2022-09-13T18:48:43;19.00;72.40
74742;DHT22;63265;48.288;16.314;2022-09-13T18:51:16;19.00;72.40
74742;DHT22;63265;48.288;16.314;2022-09-13T18:53:42;19.00;72.40
74742;DHT22;63265;48.288;16.314;2022-09-13T18:56:09;19.00;72.50
74742;DHT22;63265;48.288;16.314;2022-09-13T18:58:38;19.00;72.40
74742;DHT22;63265;48.288;16.314;2022-09-13T19:01:07;19.00;72.50
74742;DHT22;63265;48.288;16.314;2022-09-13T19:03:33;19.00;72.50
74742;DHT22;63265;48.288;16.314;2022-09-13T19:06:29;19.00;72.50
74742;DHT22;63265;48.288;16.314;2022-09-13T19:08:57;19.00;72.50
74742;DHT22;63265;48.288;16.314;2022-09-13T19:11:24;19.00;72.50
74742;DHT22;63265;48.288;16.314;2022-09-13T19:13:50;18.90;72.40
74742;DHT22;63265;48.288;16.314;2022-09-13T19:16:17;19.00;72.50
74742;DHT22;63265;48.288;16.314;2022-09-13T19:18:45;18.90;72.50
74742;DHT22;63265;48.288;16.314;2022-09-13T19:21:18;18.90;72.40
74742;DHT22;63265;48.288;16.314;2022-09-13T19:23:45;19.00;72.50
74742;DHT22;63265;48.288;16.314;2022-09-13T19:26:15;18.90;72.50
74742;DHT22;63265;48.288;16.314;2022-09-13T19:28:55;18.90;72.50
74742;DHT22;63265;48.288;16.314;2022-09-13T19:31:23;18.90;73.30
74742;DHT22;63265;48.288;16.314;2022-09-13T19:33:50;18.90;72.50
74742;DHT22;63265;48.288;16.314;2022-09-13T19:36:17;18.90;72.50
74742;DHT22;63265;48.288;16.314;2022-09-13T19:38:44;18.90;72.50
74742;DHT22;63265;48.288;16.314;2022-09-13T19:41:12;18.90;72.50
74742;DHT22;63265;48.288;16.314;2022-09-13T19:43:39;18.90;72.50
74742;DHT22;63265;48.288;16.314;2022-09-13T19:46:11;18.90;72.50
74742;DHT22;63265;48.288;16.314;2022-09-13T19:48:44;18.90;72.50
74742;DHT22;63265;48.288;16.314;2022-09-13T19:51:18;18.90;72.50
74742;DHT22;63265;48.288;16.314;2022-09-13T19:53:45;18.90;72.50
74742;DHT22;63265;48.288;16.314;2022-09-13T19:56:13;18.90;72.40
74742;DHT22;63265;48.288;16.314;2022-09-13T19:58:40;18.90;72.40
74742;DHT22;63265;48.288;16.314;2022-09-13T20:01:08;18.90;72.40
74742;DHT22;63265;48.288;16.314;2022-09-13T20:03:35;18.90;72.30
74742;DHT22;63265;48.288;16.314;2022-09-13T20:06:02;18.90;72.40
74742;DHT22;63265;48.288;16.314;2022-09-13T20:08:29;18.90;72.30
74742;DHT22;63265;48.288;16.314;2022-09-13T20:10:56;18.90;72.30
74742;DHT22;63265;48.288;16.314;2022-09-13T20:13:22;18.90;72.30
74742;DHT22;63265;48.288;16.314;2022-09-13T20:15:49;18.90;72.30
74742;DHT22;63265;48.288;16.314;2022-09-13T20:18:15;18.90;72.20
74742;DHT22;63265;48.288;16.314;2022-09-13T20:20:41;18.90;72.20
74742;DHT22;63265;48.288;16.314;2022-09-13T20:23:08;18.90;72.20
74742;DHT22;63265;48.288;16.314;2022-09-13T20:25:35;18.90;72.20
74742;DHT22;63265;48.288;16.314;2022-09-13T20:28:03;18.90;72.20
74742;DHT22;63265;48.288;16.314;2022-09-13T20:30:30;18.90;72.20
74742;DHT22;63265;48.288;16.314;2022-09-13T20:32:55;18.90;72.20
74742;DHT22;63265;48.288;16.314;2022-09-13T20:35:21;18.90;72.20
74742;DHT22;63265;48.288;16.314;2022-09-13T20:37:47;18.90;72.20
74742;DHT22;63265;48.288;16.314;2022-09-13T20:40:13;18.90;72.20
74742;DHT22;63265;48.288;16.314;2022-09-13T20:42:40;18.90;72.20
74742;DHT22;63265;48.288;16.314;2022-09-13T20:45:07;18.90;72.20
74742;DHT22;63265;48.288;16.314;2022-09-13T20:47:33;18.90;72.20
74742;DHT22;63265;48.288;16.314;2022-09-13T20:50:04;18.90;72.20
74742;DHT22;63265;48.288;16.314;2022-09-13T20:52:29;19.00;72.20
74742;DHT22;63265;48.288;16.314;2022-09-13T20:54:55;18.90;72.20
